createdAt,value
2023-07-23T00:04:40.135Z,20.4
2023-07-23T00:09:40.220Z,20.4
2023-07-23T00:14:40.295Z,20.4
2023-07-23T00:19:50.554Z,20.4
2023-07-23T00:24:50.626Z,20.4
2023-07-23T00:30:40.348Z,20.2
2023-07-23T00:35:59.834Z,20.1
2023-07-23T00:41:40.144Z,20.1
2023-07-23T00:46:40.331Z,20.1
2023-07-23T00:51:50.580Z,20.1
2023-07-23T00:57:40.441Z,20.1
2023-07-23T01:02:50.619Z,20.1
2023-07-23T01:07:50.618Z,20.1
2023-07-23T01:13:40.284Z,20.1
2023-07-23T01:18:40.350Z,20
2023-07-23T01:23:41.380Z,20
2023-07-23T01:28:50.393Z,19.9
2023-07-23T01:33:50.389Z,19.7
2023-07-23T01:38:50.611Z,19.9
2023-07-23T01:44:40.302Z,19.9
2023-07-23T01:49:40.326Z,19.8
2023-07-23T01:54:50.595Z,19.8
2023-07-23T02:00:40.358Z,19.8
2023-07-23T02:05:50.652Z,19.8
2023-07-23T02:10:50.637Z,19.9
2023-07-23T02:16:40.348Z,19.7
2023-07-23T02:21:40.341Z,19.6
2023-07-23T02:26:50.734Z,19.5
2023-07-23T02:31:50.645Z,19
2023-07-23T02:37:40.154Z,19
2023-07-23T02:42:50.399Z,19
2023-07-23T02:47:50.452Z,19
2023-07-23T02:53:40.156Z,19
2023-07-23T02:58:40.179Z,19.3
2023-07-23T03:03:40.215Z,19.5
2023-07-23T03:08:50.451Z,19.7
2023-07-23T03:14:40.150Z,19.8
2023-07-23T03:19:50.433Z,19.9
2023-07-23T03:24:50.588Z,20.3
2023-07-23T03:30:40.141Z,20.2
2023-07-23T03:35:40.163Z,20.3
2023-07-23T03:40:50.506Z,20.3
2023-07-23T03:46:40.320Z,20.3
2023-07-23T03:51:40.407Z,20.2
2023-07-23T03:56:40.387Z,20.2
2023-07-23T04:01:50.651Z,20.2
2023-07-23T04:07:40.450Z,20.2
2023-07-23T04:12:50.636Z,20.3
2023-07-23T04:17:50.672Z,20.6
2023-07-23T04:23:40.335Z,20.8
2023-07-23T04:28:40.520Z,20.9
2023-07-23T04:33:58.686Z,21.2
2023-07-23T04:39:40.329Z,21.5
2023-07-23T04:44:40.346Z,21.5
2023-07-23T04:49:50.699Z,21.5
2023-07-23T04:55:40.186Z,21.5
2023-07-23T05:00:50.643Z,21.7
2023-07-23T05:06:40.356Z,21.6
2023-07-23T05:11:50.645Z,21.8
2023-07-23T05:17:40.200Z,22.2
2023-07-23T05:22:40.357Z,22.5
2023-07-23T05:27:40.390Z,22.9
2023-07-23T05:32:50.679Z,23.1
2023-07-23T05:38:40.347Z,23
2023-07-23T05:43:40.492Z,23
2023-07-23T05:48:41.041Z,23.1
2023-07-23T05:53:50.465Z,22.8
2023-07-23T05:58:50.643Z,22.9
2023-07-23T06:03:54.157Z,23.1
2023-07-23T06:09:40.458Z,23.1
2023-07-23T06:14:50.717Z,24.7
2023-07-23T06:19:50.664Z,26.4
2023-07-23T06:25:40.349Z,26.8
2023-07-23T06:30:40.396Z,26.3
2023-07-23T06:35:50.488Z,25.5
2023-07-23T06:40:50.695Z,25.6
2023-07-23T06:46:40.417Z,25.4
2023-07-23T06:51:40.402Z,25.2
2023-07-23T06:56:50.685Z,25.4
2023-07-23T07:01:50.796Z,25.5
2023-07-23T07:07:40.405Z,25.5
2023-07-23T07:12:50.491Z,25.2
2023-07-23T07:17:50.754Z,25.1
2023-07-23T07:22:50.714Z,25
2023-07-23T07:28:40.391Z,25.1
2023-07-23T07:33:40.783Z,25.2
2023-07-23T07:38:50.771Z,25.3
2023-07-23T07:44:40.455Z,24.7
2023-07-23T07:49:50.693Z,24.4
2023-07-23T07:54:50.715Z,24.3
2023-07-23T08:00:40.404Z,23
2023-07-23T08:05:40.636Z,22.4
2023-07-23T08:10:50.717Z,22.5
2023-07-23T08:15:51.851Z,22.6
2023-07-23T08:20:50.822Z,22.5
2023-07-23T08:26:40.243Z,22.5
2023-07-23T08:31:50.778Z,22.4
2023-07-23T08:36:50.749Z,22.5
2023-07-23T08:42:40.187Z,22.4
2023-07-23T08:47:40.572Z,22.1
2023-07-23T08:52:50.864Z,21.9
2023-07-23T08:58:40.315Z,21.7
2023-07-23T09:03:40.688Z,21.4
2023-07-23T09:08:50.541Z,21.6
2023-07-23T09:14:40.299Z,21.7
2023-07-23T09:19:50.527Z,21.4
2023-07-23T09:25:40.268Z,21.6
2023-07-23T09:30:50.539Z,21.5
2023-07-23T09:35:50.623Z,21.2
2023-07-23T09:41:40.269Z,21.4
2023-07-23T09:46:40.322Z,22.1
2023-07-23T09:51:50.540Z,22.1
2023-07-23T09:57:40.254Z,22.5
2023-07-23T10:02:40.504Z,22
2023-07-23T10:07:40.459Z,22.2
2023-07-23T10:12:50.619Z,22.1
2023-07-23T10:17:50.755Z,22.7
2023-07-23T10:23:40.620Z,23.1
2023-07-23T10:28:50.742Z,22.6
2023-07-23T10:34:40.246Z,22.8
2023-07-23T10:39:40.507Z,23
2023-07-23T10:44:40.646Z,22.2
2023-07-23T10:49:50.761Z,22.8
2023-07-23T10:54:50.777Z,22.7
2023-07-23T11:00:40.464Z,22.6
2023-07-23T11:05:40.548Z,23
2023-07-23T11:10:50.758Z,22.8
2023-07-23T11:16:40.525Z,22.8
2023-07-23T11:21:40.469Z,22.9
2023-07-23T11:26:40.471Z,22.6
2023-07-23T11:31:40.614Z,22.6
2023-07-23T11:36:42.243Z,22.5
2023-07-23T11:41:50.771Z,22.6
2023-07-23T11:47:40.587Z,22.7
2023-07-23T11:52:50.777Z,23
2023-07-23T11:58:40.491Z,23
2023-07-23T12:03:50.797Z,23.7
2023-07-23T12:08:50.914Z,23.8
2023-07-23T12:14:40.514Z,23.9
2023-07-23T12:19:50.785Z,24.3
2023-07-23T12:25:40.502Z,23.7
2023-07-23T12:30:50.575Z,24.1
2023-07-23T12:35:50.930Z,24.3
2023-07-23T12:41:40.659Z,24
2023-07-23T12:46:50.790Z,23.6
2023-07-23T12:52:40.313Z,23.6
2023-07-23T12:57:50.626Z,23.5
2023-07-23T13:02:50.858Z,23.2
2023-07-23T13:07:50.969Z,22.9
2023-07-23T13:13:40.515Z,23.2
2023-07-23T13:18:50.834Z,23.3
2023-07-23T13:24:40.309Z,23.4
2023-07-23T13:29:40.549Z,23.6
2023-07-23T13:34:50.815Z,23.3
2023-07-23T13:39:50.809Z,23.5
2023-07-23T13:45:40.532Z,23.8
2023-07-23T13:50:52.158Z,24.3
2023-07-23T13:56:40.522Z,24.6
2023-07-23T14:01:40.536Z,25.7
2023-07-23T14:06:50.823Z,26.9
2023-07-23T14:12:40.519Z,27.5
2023-07-23T14:17:40.582Z,27.5
2023-07-23T14:22:40.541Z,27.2
2023-07-23T14:27:50.681Z,26
2023-07-23T14:32:50.896Z,25.2
2023-07-23T14:37:50.800Z,24.6
2023-07-23T14:42:50.836Z,24.4
2023-07-23T14:48:40.321Z,24.3
2023-07-23T14:53:40.649Z,24
2023-07-23T14:58:50.836Z,24.2
2023-07-23T15:03:51.031Z,24
2023-07-23T15:09:40.355Z,23.8
2023-07-23T15:14:50.607Z,23.8
2023-07-23T15:19:50.628Z,23.7
2023-07-23T15:24:50.682Z,23.9
2023-07-23T15:29:50.639Z,23.9
2023-07-23T15:34:50.685Z,24.1
2023-07-23T15:40:40.399Z,24.4
2023-07-23T15:45:50.895Z,24.4
2023-07-23T15:51:40.418Z,24.5
2023-07-23T15:56:50.636Z,24.7
2023-07-23T16:01:50.744Z,24.6
2023-07-23T16:06:50.660Z,25
2023-07-23T16:11:50.665Z,25.4
2023-07-23T16:17:40.624Z,25.1
2023-07-23T16:22:50.781Z,25.6
2023-07-23T16:27:50.872Z,25.7
2023-07-23T16:33:40.595Z,25.7
2023-07-23T16:38:40.579Z,25.5
2023-07-23T16:43:50.858Z,25.5
2023-07-23T16:48:50.888Z,25.8
2023-07-23T16:54:40.520Z,25.7
2023-07-23T16:59:50.874Z,25.8
2023-07-23T17:10:40.380Z,24.5
2023-07-23T17:15:40.442Z,24.2
2023-07-23T17:20:40.594Z,23.7
2023-07-23T17:25:50.650Z,23.2
2023-07-23T17:30:50.730Z,23.1
2023-07-23T17:35:57.681Z,23.2
2023-07-23T17:41:40.600Z,23
2023-07-23T17:46:40.632Z,23.2
2023-07-23T17:51:50.878Z,23.2
2023-07-23T17:56:50.893Z,23.1
2023-07-23T18:02:40.692Z,23
2023-07-23T18:07:50.891Z,22.9
2023-07-23T18:12:50.925Z,23
2023-07-23T18:18:40.650Z,22.9
2023-07-23T18:23:51.047Z,22.8
2023-07-23T18:29:40.599Z,22.7
2023-07-23T18:34:40.648Z,22.4
2023-07-23T18:39:50.722Z,22.4
2023-07-23T18:44:50.876Z,21.9
2023-07-23T18:49:50.956Z,21.8
2023-07-23T18:55:40.626Z,21.9
2023-07-23T19:00:40.630Z,21.9
2023-07-23T19:05:40.651Z,21.7
2023-07-23T19:10:50.913Z,21.7
2023-07-23T19:21:50.900Z,21.5
2023-07-23T19:32:40.662Z,21.3
2023-07-23T19:37:42.053Z,21.3
2023-07-23T19:42:50.922Z,21.3
2023-07-23T19:53:40.658Z,21.4
2023-07-23T19:58:40.631Z,21.4
2023-07-23T20:03:40.659Z,21.2
2023-07-23T20:08:59.965Z,21.3
2023-07-23T20:14:40.665Z,21.3
2023-07-23T20:19:50.927Z,21.3
2023-07-23T20:24:50.996Z,21.1
2023-07-23T20:30:40.478Z,21.1
2023-07-23T20:35:40.625Z,21.1
2023-07-23T20:40:40.647Z,21
2023-07-23T20:45:50.920Z,21.1
2023-07-23T20:51:40.492Z,21.2
2023-07-23T20:56:40.745Z,21.1
2023-07-23T21:01:40.873Z,21
2023-07-23T21:06:51.113Z,21
2023-07-23T21:12:40.702Z,21
2023-07-23T21:17:50.706Z,21
2023-07-23T21:22:50.766Z,21
2023-07-23T21:27:50.804Z,21.1
2023-07-23T21:33:40.601Z,20.7
2023-07-23T21:38:50.777Z,20.4
2023-07-23T21:44:40.590Z,20.4
2023-07-23T21:49:50.765Z,20.5
2023-07-23T21:55:40.486Z,20.4
2023-07-23T22:00:40.519Z,20.7
2023-07-23T22:05:50.724Z,20.7
2023-07-23T22:10:50.757Z,20.8
2023-07-23T22:15:50.786Z,20.8
2023-07-23T22:21:40.485Z,20.8
2023-07-23T22:26:40.618Z,20.7
2023-07-23T22:31:40.615Z,20.8
2023-07-23T22:36:40.711Z,20.8
2023-07-23T22:41:51.025Z,20.5
2023-07-23T22:47:40.498Z,20.7
2023-07-23T22:52:40.510Z,20.9
2023-07-23T22:57:42.113Z,20.8
2023-07-23T23:02:51.201Z,20.7
2023-07-23T23:08:40.486Z,20.7
2023-07-23T23:13:40.487Z,20.8
2023-07-23T23:18:40.705Z,20.6
2023-07-23T23:23:50.947Z,20.7
2023-07-23T23:29:40.464Z,20.8
2023-07-23T23:34:40.722Z,20.8
2023-07-23T23:39:51.141Z,20.8
2023-07-23T23:45:40.686Z,20.8
2023-07-23T23:50:40.717Z,20.5
2023-07-23T23:55:40.733Z,20.4
